SV1LH-1 Melissia GR current weather conditions

sailwx.info

Wind from 090

Air temperature 12.8° C
Dewpoint 4.7° C

Last reported at 2015-May-27 02:50 UTC.
Time now 2015-May-27 03:39 UTC

Location: N 38°03' E 023°51'.
View on Google Maps.

See reports from other nearby stations

  
Tides and Currents Weather Stations Pressure Air Temp Water Temp Dewpoint Dewpoint Depression Visibility Wind Speed Wind Dir Waves Ship Positions
date/time (UTC)wind fromknots sea level pressurealtimeterstation pressurevisibilityair tempwater tempwave heightnotes
2015-May-27 02:50 090 12.8
2015-May-27 02:45 067 0 gusting 1 12.8
2015-May-27 02:40 090 0 gusting 1 13.3
2015-May-27 02:35 090 1 gusting 2 13.3
2015-May-27 02:30 090 1 gusting 1 12.8
2015-May-27 02:25 067 0 gusting 0 12.8
2015-May-27 02:20 090 13.3
2015-May-27 02:13 090 1 gusting 3 13.3
2015-May-27 02:10 112 1 gusting 2 13.3
2015-May-27 02:05 090 1 gusting 1 13.3
2015-May-27 02:00 045 13.3
2015-May-27 01:55 045 13.3
2015-May-27 01:50 090 0 gusting 0 13.3
2015-May-27 01:45 112 0 gusting 1 13.3
2015-May-27 01:40 045 13.3
2015-May-27 01:35 045 13.9
2015-May-27 01:30 045 13.9
2015-May-27 01:25 090 0 gusting 0 13.9
2015-May-27 01:20 022 13.9
2015-May-27 01:15 022 13.9
2015-May-27 01:10 022 14.4
2015-May-27 01:05 022 14.4
2015-May-27 01:00 022 0 gusting 0 14.4
2015-May-27 00:55 112 0 gusting 1 14.4
2015-May-27 00:50 112 1 gusting 1 14.4
2015-May-27 00:45 112 0 gusting 1 13.9
2015-May-27 00:40 045 13.9
2015-May-27 00:35 090 0 gusting 1 13.9
2015-May-27 00:30 090 0 gusting 0 13.9
2015-May-27 00:25 022 13.9
2015-May-27 00:20 045 0 gusting 1 13.9
2015-May-27 00:15 067 1 gusting 2 13.9
2015-May-27 00:10 090 1 gusting 2 13.9
2015-May-27 00:05 090 0 gusting 1 13.9
2015-May-27 00:00 112 0 gusting 1 14.4
2015-May-26 23:55 045 0 gusting 1 14.4
2015-May-26 23:50 067 0 gusting 1 14.4
2015-May-26 23:45 090 1 gusting 2 14.4
2015-May-26 23:40 067 1 gusting 2 14.4
2015-May-26 23:35 090 2 gusting 3 14.4
2015-May-26 23:30 090 1 gusting 1 14.4
2015-May-26 23:25 067 0 gusting 0 14.4
2015-May-26 23:20 135 0 gusting 1 15.0
2015-May-26 23:15 112 2 gusting 2 15.0
2015-May-26 23:10 090 0 gusting 0 15.0
2015-May-26 23:05 090 0 gusting 1 15.0
2015-May-26 23:00 090 15.0
2015-May-26 22:55 090 15.6
2015-May-26 22:50 180 0 gusting 1 15.6
2015-May-26 22:45 090 15.6
2015-May-26 22:40 090 15.6
2015-May-26 22:35 112 16.1
2015-May-26 22:30 090 0 gusting 2 16.1
2015-May-26 22:25 135 2 gusting 3 16.1
2015-May-26 22:20 157 2 gusting 3 16.1
2015-May-26 22:15 112 1 gusting 1 16.1
2015-May-26 22:10 157 1 gusting 2 16.1
2015-May-26 22:05 180 1 gusting 3 16.1
2015-May-26 22:00 090 0 gusting 2 15.6
2015-May-26 21:55 112 1 gusting 1 15.6
2015-May-26 21:50 112 1 gusting 2 15.6
2015-May-26 21:45 112 1 gusting 1 15.6
2015-May-26 21:40 045 15.6
2015-May-26 21:35 045 0 gusting 1 15.6
2015-May-26 21:30 135 15.6
2015-May-26 21:25 135 0 gusting 1 15.6
2015-May-26 21:20 157 15.6
2015-May-26 21:15 090 4 gusting 5 15.6
2015-May-26 21:10 157 15.6
2015-May-26 21:05 180 0 gusting 1 15.6
2015-May-26 21:00 135 2 gusting 4 15.6
2015-May-26 20:55 090 2 gusting 3 15.6
2015-May-26 20:50 180 3 gusting 5 15.6
2015-May-26 20:45 157 4 gusting 6 15.6
2015-May-26 20:40 157 3 gusting 5 16.1
2015-May-26 20:35 157 4 gusting 6 16.1
2015-May-26 20:30 135 4 gusting 5 16.1
2015-May-26 20:25 090 3 gusting 6 16.1
2015-May-26 20:20 135 4 gusting 6 16.7
2015-May-26 20:15 180 4 gusting 6 16.1
2015-May-26 20:10 180 3 gusting 4 16.1
2015-May-26 20:05 202 2 gusting 3 16.1
2015-May-26 20:00 090 16.1
2015-May-26 19:55 090 1 gusting 1 16.1
2015-May-26 19:50 337 0 gusting 0 16.1
2015-May-26 19:45 16.1
2015-May-26 19:40 022 16.1
2015-May-26 19:35 022 16.7
2015-May-26 19:30 022 0 gusting 1 16.1
2015-May-26 19:25 045 16.1
2015-May-26 19:20 045 0 gusting 1 16.1
2015-May-26 19:15 16.1
2015-May-26 19:10 16.1
2015-May-26 19:05 292 0 gusting 1 16.1
2015-May-26 19:00 315 0 gusting 1 16.1
2015-May-26 18:55 315 0 gusting 1 16.7
2015-May-26 18:50 112 0 gusting 1 16.7
2015-May-26 18:45 112 0 gusting 1 16.7
2015-May-26 18:40 135 2 gusting 4 16.7
2015-May-26 18:35 247 0 gusting 2 16.7
2015-May-26 18:30 202 0 gusting 1 16.7
2015-May-26 18:25 180 2 gusting 4 16.7
2015-May-26 18:20 135 2 gusting 3 16.7
2015-May-26 18:15 112 3 gusting 4 16.1
2015-May-26 18:10 067 3 gusting 4 16.1
2015-May-26 18:05 112 0 gusting 1 16.1
2015-May-26 18:00 067 0 gusting 0 16.1
2015-May-26 17:55 112 1 gusting 2 16.7
2015-May-26 17:50 090 1 gusting 2 16.7
2015-May-26 17:45 022 1 gusting 2 16.7
2015-May-26 17:40 022 0 gusting 2 17.2
2015-May-26 17:35 337 1 gusting 1 17.2
2015-May-26 17:30 247 0 gusting 1 17.2
2015-May-26 17:25 292 3 gusting 5 17.2
2015-May-26 17:20 315 2 gusting 3 17.2
2015-May-26 17:15 270 2 gusting 3 17.2
2015-May-26 17:10 337 2 gusting 5 17.2
2015-May-26 17:05 270 0 gusting 1 17.2
2015-May-26 17:00 315 2 gusting 3 17.2
2015-May-26 16:55 292 1 gusting 4 17.2
2015-May-26 16:50 315 4 gusting 6 17.2
2015-May-26 16:45 315 2 gusting 4 17.2
2015-May-26 16:40 17.8
2015-May-26 16:35 315 1 gusting 2 17.2
2015-May-26 16:30 022 1 gusting 2 17.8
2015-May-26 16:25 17.2
2015-May-26 16:20 292 4 gusting 6 17.2
2015-May-26 16:15 270 1 gusting 2 17.2
2015-May-26 16:10 180 2 gusting 3 17.2
2015-May-26 16:05 135 3 gusting 6 17.2
2015-May-26 16:00 090 6 gusting 9 16.7
2015-May-26 15:55 090 7 gusting 11 16.7
2015-May-26 15:50 112 5 gusting 7 16.7
2015-May-26 15:45 135 3 gusting 5 16.7
2015-May-26 15:40 112 4 gusting 8 16.7
2015-May-26 15:35 112 4 gusting 6 16.1
2015-May-26 15:30 112 6 gusting 7 16.1
2015-May-26 15:25 112 5 gusting 7 15.6
2015-May-26 15:20 112 4 gusting 6 15.6
2015-May-26 15:15 112 4 gusting 7 15.6
2015-May-26 15:10 022 3 gusting 4 16.1
2015-May-26 15:05 202 1 gusting 3 16.7
2015-May-26 15:00 180 3 gusting 5 17.2
2015-May-26 14:55 090 6 gusting 11 18.3
2015-May-26 14:50 202 4 gusting 7 19.4
2015-May-26 14:45 112 6 gusting 8 19.4
2015-May-26 14:40 157 4 gusting 6 19.4
2015-May-26 14:35 090 1 gusting 3 20.0
2015-May-26 14:30 112 2 gusting 3 20.0
2015-May-26 14:25 157 2 gusting 3 20.0
2015-May-26 14:20 202 1 gusting 3 20.6
2015-May-26 14:15 067 0 gusting 1 20.6
2015-May-26 14:10 135 0 gusting 2 21.1
2015-May-26 14:05 135 1 gusting 2 21.1
2015-May-26 14:00 157 0 gusting 1 21.7
2015-May-26 13:55 247 21.1
2015-May-26 13:50 157 3 gusting 5 21.1
2015-May-26 13:45 180 2 gusting 4 21.1
2015-May-26 13:40 202 3 gusting 5 21.7
2015-May-26 13:35 112 4 gusting 7 21.7
2015-May-26 13:30 112 2 gusting 3 22.2
2015-May-26 13:25 225 2 gusting 3 22.2
2015-May-26 13:20 247 5 gusting 6 22.8
2015-May-26 13:15 157 4 gusting 7 23.3
2015-May-26 13:10 112 6 gusting 8 23.3
2015-May-26 13:05 067 3 gusting 6 23.3
2015-May-26 13:00 135 6 gusting 10 23.3
2015-May-26 12:55 135 4 gusting 7 23.3
2015-May-26 12:50 135 3 gusting 6 23.3
2015-May-26 12:45 157 6 gusting 6 23.3
2015-May-26 12:40 112 7 gusting 9 23.9
2015-May-26 12:35 090 1 gusting 2 23.9
2015-May-26 12:30 112 5 gusting 8 24.4
2015-May-26 12:25 135 2 gusting 6 25.0
2015-May-26 12:20 135 4 gusting 6 25.0
2015-May-26 12:15 135 3 gusting 6 25.0
2015-May-26 12:10 157 6 gusting 8 25.6
2015-May-26 12:05 180 2 gusting 4 25.6
2015-May-26 12:00 067 3 gusting 5 26.1
2015-May-26 11:55 112 4 gusting 6 26.7
2015-May-26 11:50 157 2 gusting 4 26.7
2015-May-26 11:45 112 1 gusting 2 26.7
2015-May-26 11:40 090 1 gusting 2 26.1
2015-May-26 11:35 090 3 gusting 6 26.1
2015-May-26 11:30 180 4 gusting 6 26.7
2015-May-26 11:25 157 4 gusting 7 26.7
2015-May-26 11:20 157 3 gusting 8 26.1
2015-May-26 11:15 157 4 gusting 7 26.1
2015-May-26 11:10 135 4 gusting 8 26.1
2015-May-26 11:05 135 4 gusting 6 25.6
2015-May-26 11:00 135 5 gusting 8 25.6
2015-May-26 10:55 067 5 gusting 6 26.1
2015-May-26 10:50 090 3 gusting 6 26.1
2015-May-26 10:45 135 6 gusting 9 26.7
2015-May-26 10:40 135 1 gusting 4 26.7
2015-May-26 10:35 090 5 gusting 10 27.2
2015-May-26 10:30 202 2 gusting 3 27.2
2015-May-26 10:25 225 1 gusting 4 26.7
2015-May-26 10:20 112 5 gusting 6 27.2
2015-May-26 10:15 135 2 gusting 5 27.2
2015-May-26 10:10 135 4 gusting 6 27.2
2015-May-26 10:05 090 2 gusting 5 26.7
2015-May-26 10:00 135 2 gusting 4 26.7
2015-May-26 09:55 135 4 gusting 6 27.2
2015-May-26 09:50 202 1 gusting 3 27.2
2015-May-26 09:45 292 1 gusting 2 26.7
2015-May-26 09:40 270 3 gusting 5 26.7
2015-May-26 09:35 157 3 gusting 5 26.7
2015-May-26 09:30 180 2 gusting 3 26.7
2015-May-26 09:25 247 2 gusting 3 26.7
2015-May-26 09:20 270 4 gusting 6 27.2
2015-May-26 09:15 225 4 gusting 7 27.8
2015-May-26 09:10 270 3 gusting 5 27.8
2015-May-26 09:05 315 0 gusting 1 27.8
2015-May-26 09:00 225 1 gusting 3 27.8
2015-May-26 08:55 045 0 gusting 2 27.2
2015-May-26 08:50 270 3 gusting 5 27.2
2015-May-26 08:45 292 3 gusting 5 27.2
2015-May-26 08:40 202 2 gusting 4 27.2
2015-May-26 08:35 225 3 gusting 5 27.8
2015-May-26 08:30 270 2 gusting 4 27.8
2015-May-26 08:25 27.2
2015-May-26 08:20 247 2 gusting 4 27.8
2015-May-26 08:15 225 1 gusting 2 27.2
2015-May-26 08:10 247 3 gusting 4 26.7
2015-May-26 08:05 292 2 gusting 5 26.7
2015-May-26 08:00 270 2 gusting 4 26.7
2015-May-26 07:55 247 2 gusting 5 26.7
2015-May-26 07:50 270 2 gusting 3 27.2
2015-May-26 07:45 270 0 gusting 1 27.2
2015-May-26 07:40 202 3 gusting 4 27.2
2015-May-26 07:35 225 1 gusting 3 27.8
2015-May-26 07:30 292 1 gusting 1 27.8
2015-May-26 07:25 247 0 gusting 1 27.2
2015-May-26 07:20 112 27.2
2015-May-26 07:15 225 26.7
2015-May-26 07:10 225 2 gusting 3 26.7
2015-May-26 07:05 270 1 gusting 2 26.7
2015-May-26 07:00 270 26.1
2015-May-26 06:55 315 1 gusting 2 26.1
2015-May-26 06:50 202 26.1
2015-May-26 06:45 315 1 gusting 2 25.6
2015-May-26 06:40 292 1 gusting 3 25.6
2015-May-26 06:35 292 1 gusting 3 25.0
2015-May-26 06:30 247 1 gusting 2 25.0
2015-May-26 06:25 270 0 gusting 1 24.4
2015-May-26 06:20 247 2 gusting 3 25.0
2015-May-26 06:15 270 2 gusting 2 25.0
2015-May-26 06:10 225 24.4
2015-May-26 06:05 247 0 gusting 1 24.4
2015-May-26 06:00 247 0 gusting 1 24.4
2015-May-26 05:55 247 23.9
2015-May-26 05:50 247 1 gusting 1 23.3
2015-May-26 05:45 247 1 gusting 1 23.3
2015-May-26 05:40 247 22.8
2015-May-26 05:35 247 0 gusting 0 22.2
2015-May-26 05:30 270 1 gusting 1 22.2
2015-May-26 05:25 247 1 gusting 2 21.7
2015-May-26 05:20 247 0 gusting 0 21.1
2015-May-26 05:15 247 20.6
2015-May-26 05:10 135 0 gusting 1 20.0
2015-May-26 05:05 112 0 gusting 1 19.4
2015-May-26 05:00 112 18.9
2015-May-26 04:55 112 18.3
2015-May-26 04:50 067 1 gusting 2 17.8
2015-May-26 04:45 067 17.2
2015-May-26 04:40 067 16.1
2015-May-26 04:35 112 0 gusting 1 15.6
2015-May-26 04:30 045 0 gusting 1 15.0
2015-May-26 04:25 090 0 gusting 1 15.0
2015-May-26 04:20 090 1 gusting 2 14.4
2015-May-26 04:15 067 0 gusting 0 14.4
2015-May-26 04:10 090 1 gusting 1 13.9
2015-May-26 04:05 090 0 gusting 1 13.9
2015-May-26 04:00 090 2 gusting 2 13.9
2015-May-26 03:55 090 1 gusting 1 13.3
2015-May-26 03:50 090 0 gusting 1 13.3
2015-May-26 03:45 067 0 gusting 0 13.3
2015-May-26 03:40 090 0 gusting 1 12.8
2015-May-26 03:35 090 2 gusting 4 12.8
2015-May-26 03:30 090 0 gusting 1 12.2
2015-May-26 03:25 067 0 gusting 1 12.2
2015-May-26 03:20 112 1 gusting 1 11.7
2015-May-26 03:15 090 1 gusting 1 11.7
2015-May-26 03:10 090 1 gusting 2 11.7
2015-May-26 03:05 090 1 gusting 2 11.7
2015-May-26 03:00 090 1 gusting 2 11.7
2015-May-26 02:55 090 1 gusting 2 11.7
2015-May-26 02:50 090 0 gusting 1 11.7
2015-May-26 02:45 090 1 gusting 2 11.7
2015-May-26 02:40 090 0 gusting 1 11.7
2015-May-26 02:35 090 2 gusting 2 11.7
2015-May-26 02:30 090 1 gusting 2 12.2
2015-May-26 02:25 067 0 gusting 0 12.2
2015-May-26 02:20 090 0 gusting 0 12.2
2015-May-26 02:15 067 0 gusting 1 12.2
2015-May-26 02:10 090 0 gusting 1 12.2
2015-May-26 02:05 090 12.2
2015-May-26 02:00 090 2 gusting 3 12.2
2015-May-26 01:55 090 0 gusting 1 12.2
2015-May-26 01:50 090 1 gusting 1 12.2
2015-May-26 01:45 090 0 gusting 1 12.2
2015-May-26 01:40 090 12.8
2015-May-26 01:35 090 1 gusting 1 12.8
2015-May-26 01:30 067 0 gusting 0 12.8
2015-May-26 01:25 067 12.8
2015-May-26 01:20 022 12.8
2015-May-26 01:15 13.3
2015-May-26 01:10 022 0 gusting 1 13.3
2015-May-26 01:05 022 13.3
2015-May-26 01:00 022 0 gusting 1 13.3
2015-May-26 00:55 13.3
2015-May-26 00:50 13.3
2015-May-26 00:45 022 0 gusting 1 13.3
2015-May-26 00:40 022 0 gusting 1 13.3
2015-May-26 00:35 022 13.3
2015-May-26 00:30 022 0 gusting 0 13.3
2015-May-26 00:25 022 13.3
2015-May-26 00:20 022 0 gusting 0 13.3
2015-May-26 00:15 022 13.9
2015-May-26 00:10 045 0 gusting 1 13.9
2015-May-26 00:05 022 0 gusting 0 13.9
2015-May-26 00:00 022 0 gusting 1 13.3
2015-May-25 23:55 045 0 gusting 1 13.3
2015-May-25 23:50 045 13.3
2015-May-25 23:45 045 0 gusting 0 12.8
2015-May-25 23:40 067 0 gusting 0 12.8
2015-May-25 23:35 090 13.3
2015-May-25 23:30 067 0 gusting 0 12.8
2015-May-25 23:25 067 12.8
2015-May-25 23:20 090 12.8
2015-May-25 23:15 067 13.3
2015-May-25 23:10 090 0 gusting 1 13.3
2015-May-25 23:05 090 0 gusting 1 12.8
2015-May-25 23:00 067 0 gusting 0 12.8
2015-May-25 22:55 067 0 gusting 1 13.3
2015-May-25 22:50 090 13.3
2015-May-25 22:45 090 13.3
2015-May-25 22:40 112 13.3
2015-May-25 22:35 067 13.9
2015-May-25 22:30 067 13.9
2015-May-25 22:25 067 13.9
2015-May-25 22:20 112 0 gusting 0 13.9
2015-May-25 22:15 090 1 gusting 1 13.9
2015-May-25 22:10 090 1 gusting 1 13.9
2015-May-25 22:05 045 13.9
2015-May-25 22:00 022 1 gusting 1 13.9
2015-May-25 21:55 067 13.9
2015-May-25 21:50 067 14.4
2015-May-25 21:45 067 14.4
2015-May-25 21:40 067 14.4
2015-May-25 21:35 090 0 gusting 1 14.4
2015-May-25 21:30 112 14.4
2015-May-25 21:25 090 14.4
2015-May-25 21:20 067 15.0
2015-May-25 21:15 067 15.0
2015-May-25 21:10 090 15.0
2015-May-25 21:05 112 15.6
2015-May-25 21:00 045 0 gusting 1 15.6
2015-May-25 20:55 022 0 gusting 1 15.6
2015-May-25 20:50 15.6
2015-May-25 20:45 15.6
2015-May-25 20:40 337 1 gusting 2 15.6
2015-May-25 20:35 067 15.6
2015-May-25 20:30 112 1 gusting 2 15.6
2015-May-25 20:25 112 2 gusting 3 15.6
2015-May-25 20:20 090 2 gusting 3 15.6
2015-May-25 20:15 337 16.1
2015-May-25 20:10 337 16.1
2015-May-25 20:05 337 16.1
2015-May-25 20:00 337 16.7
2015-May-25 19:55 315 0 gusting 1 16.7
2015-May-25 19:50 292 16.7
2015-May-25 19:45 292 1 gusting 2 16.7
2015-May-25 19:40 225 17.2
2015-May-25 19:35 315 1 gusting 3 17.2
2015-May-25 19:30 315 0 gusting 2 17.2
2015-May-25 19:25 247 0 gusting 1 17.2
2015-May-25 19:20 270 2 gusting 3 17.2
2015-May-25 19:15 292 1 gusting 2 17.2
2015-May-25 19:10 247 2 gusting 4 17.8
2015-May-25 19:05 270 0 gusting 1 17.8
2015-May-25 19:00 292 17.8
2015-May-25 18:55 292 1 gusting 2 17.8
2015-May-25 18:50 270 17.8
2015-May-25 18:45 315 2 gusting 3 17.8
2015-May-25 18:40 247 0 gusting 1 17.8
2015-May-25 18:35 247 1 gusting 3 17.8
2015-May-25 18:30 292 0 gusting 1 17.8
2015-May-25 18:25 17.8
2015-May-25 18:20 18.3
2015-May-25 18:15 292 18.3
2015-May-25 18:10 292 1 gusting 2 18.3
2015-May-25 18:05 292 3 gusting 5 17.8
2015-May-25 18:00 18.3
2015-May-25 17:55 315 18.3
2015-May-25 17:50 270 2 gusting 3 18.9
2015-May-25 17:45 292 0 gusting 1 18.9
2015-May-25 17:40 315 18.9
2015-May-25 17:35 292 0 gusting 1 19.4
2015-May-25 17:30 270 0 gusting 0 20.0
2015-May-25 17:25 202 0 gusting 2 20.0
2015-May-25 17:20 225 20.6
2015-May-25 17:15 202 0 gusting 2 20.6
2015-May-25 17:10 202 0 gusting 1 21.1
2015-May-25 17:05 225 2 gusting 3 21.1
2015-May-25 17:00 270 3 gusting 4 21.7
2015-May-25 16:55 315 0 gusting 1 21.7
2015-May-25 16:50 270 4 gusting 5 22.2
2015-May-25 16:45 270 3 gusting 6 22.2
2015-May-25 16:40 225 1 gusting 3 22.2
2015-May-25 16:35 292 2 gusting 4 22.8
2015-May-25 16:30 247 1 gusting 4 22.8
2015-May-25 16:25 247 4 gusting 5 22.8
2015-May-25 16:20 247 6 gusting 6 22.8
2015-May-25 16:15 315 5 gusting 7 22.8
2015-May-25 16:10 270 6 gusting 7 23.3
2015-May-25 16:05 247 5 gusting 7 23.3
2015-May-25 16:00 270 5 gusting 9 23.3
2015-May-25 15:55 270 6 gusting 9 23.9
2015-May-25 15:50 270 7 gusting 10 23.9
2015-May-25 15:45 225 6 gusting 10 23.9
2015-May-25 15:40 202 3 gusting 4 23.9
2015-May-25 15:35 292 6 gusting 8 24.4
2015-May-25 15:30 225 6 gusting 11 25.0
2015-May-25 15:25 270 2 gusting 3 25.0
2015-May-25 15:20 225 6 gusting 9 25.0
2015-May-25 15:15 270 2 gusting 4 24.4
2015-May-25 15:10 247 5 gusting 7 25.0
2015-May-25 15:05 247 7 gusting 10 25.0
2015-May-25 15:00 180 5 gusting 8 25.6
2015-May-25 14:55 225 3 gusting 7 25.0
2015-May-25 14:50 247 5 gusting 6 25.0
2015-May-25 14:45 202 5 gusting 9 25.0
2015-May-25 14:40 225 4 gusting 6 25.0
2015-May-25 14:35 135 5 gusting 6 25.6
2015-May-25 14:30 247 4 gusting 6 25.6
2015-May-25 14:25 270 4 gusting 7 25.6
2015-May-25 14:20 225 5 gusting 8 25.6
2015-May-25 14:15 315 6 gusting 9 25.6
2015-May-25 14:10 225 6 gusting 9 26.1
2015-May-25 14:05 202 2 gusting 5 25.6
2015-May-25 14:00 315 6 gusting 12 25.6
2015-May-25 13:55 247 7 gusting 10 26.1
2015-May-25 13:50 270 6 gusting 8 26.1
2015-May-25 13:45 225 7 gusting 11 26.1
2015-May-25 13:40 292 5 gusting 8 26.1
2015-May-25 13:35 202 4 gusting 8 26.1
2015-May-25 13:30 202 6 gusting 11 26.1
2015-May-25 13:25 180 6 gusting 10 26.7
2015-May-25 13:20 292 2 gusting 4 26.1
2015-May-25 13:15 225 6 gusting 11 26.7
2015-May-25 13:10 270 7 gusting 12 26.7
2015-May-25 13:05 270 6 gusting 10 26.7
2015-May-25 13:00 270 5 gusting 7 26.7
2015-May-25 12:55 180 6 gusting 12 26.7
2015-May-25 12:50 247 8 gusting 13 26.1
2015-May-25 12:45 270 6 gusting 7 26.7
2015-May-25 12:40 315 6 gusting 10 26.7
2015-May-25 12:35 247 6 gusting 9 26.1
2015-May-25 12:30 225 8 gusting 13 26.7
2015-May-25 12:25 292 8 gusting 12 26.7
2015-May-25 12:20 315 6 gusting 11 26.7
2015-May-25 12:15 270 6 gusting 10 26.7
2015-May-25 12:10 247 6 gusting 10 27.2
2015-May-25 12:05 225 6 gusting 10 27.2
2015-May-25 12:00 270 6 gusting 6 27.2
2015-May-25 11:55 157 4 gusting 6 27.2
2015-May-25 11:50 202 5 gusting 8 27.2
2015-May-25 11:45 225 5 gusting 8 26.7
2015-May-25 11:40 247 6 gusting 8 27.2
2015-May-25 11:35 270 1 gusting 3 26.7
2015-May-25 11:30 247 3 gusting 5 26.7
2015-May-25 11:25 292 5 gusting 7 26.7
2015-May-25 11:20 337 6 gusting 10 27.2
2015-May-25 11:15 337 4 gusting 6 27.2
2015-May-25 11:10 202 4 gusting 6 26.7
2015-May-25 11:05 225 2 gusting 3 26.7
2015-May-25 11:00 180 6 gusting 9 26.7
2015-May-25 10:55 270 5 gusting 7 26.7
2015-May-25 10:50 247 4 gusting 7 27.2
2015-May-25 10:45 270 0 gusting 5 26.7
2015-May-25 10:40 247 4 gusting 7 26.7
2015-May-25 10:35 270 5 gusting 6 26.7
2015-May-25 10:30 292 5 gusting 7 26.7
2015-May-25 10:25 270 3 gusting 6 26.7
2015-May-25 10:20 315 3 gusting 5 26.7
2015-May-25 10:15 180 1 gusting 2 26.7
2015-May-25 10:10 135 2 gusting 5 26.7
2015-May-25 10:05 202 1 gusting 2 26.7
2015-May-25 10:00 135 3 gusting 6 26.7
2015-May-25 09:55 247 3 gusting 5 26.7
2015-May-25 09:50 292 4 gusting 6 26.7
2015-May-25 09:45 270 2 gusting 5 26.1
2015-May-25 09:40 202 5 gusting 6 26.1
2015-May-25 09:35 247 1 gusting 3 26.7
2015-May-25 09:30 225 2 gusting 5 26.7
2015-May-25 09:25 270 2 gusting 4 26.7
2015-May-25 09:20 202 2 gusting 5 26.7
2015-May-25 09:15 247 2 gusting 4 26.1
2015-May-25 09:10 247 3 gusting 5 26.7
2015-May-25 09:05 270 3 gusting 4 26.7
2015-May-25 09:00 270 5 gusting 7 26.7
2015-May-25 08:55 292 1 gusting 2 26.7
2015-May-25 08:50 225 4 gusting 9 26.7
2015-May-25 08:45 270 2 gusting 4 27.2
2015-May-25 08:40 292 1 gusting 4 27.2
2015-May-25 08:35 270 2 gusting 5 26.7
2015-May-25 08:30 292 26.7
2015-May-25 08:25 292 26.1
2015-May-25 08:20 247 4 gusting 5 26.7
2015-May-25 08:15 292 3 gusting 6 26.7
2015-May-25 08:10 337 1 gusting 2 27.2
2015-May-25 08:05 270 1 gusting 1 27.2
2015-May-25 08:00 180 0 gusting 1 26.7
2015-May-25 07:55 202 1 gusting 2 25.6
2015-May-25 07:50 270 23.9
2015-May-25 07:45 180 22.2
2015-May-25 07:40 180 0 gusting 1 22.8
2015-May-25 07:35 202 3 gusting 4 24.4
2015-May-25 07:30 247 1 gusting 2 25.0
2015-May-25 07:25 292 1 gusting 2 24.4
2015-May-25 07:20 315 2 gusting 4 23.3
2015-May-25 07:15 247 21.1
2015-May-25 07:10 270 2 gusting 3 21.1
2015-May-25 07:05 315 21.7
2015-May-25 07:00 315 21.1
2015-May-25 06:55 270 2 gusting 3 21.1
2015-May-25 06:50 247 21.1
2015-May-25 06:45 292 3 gusting 4 21.1
2015-May-25 06:40 315 2 gusting 3 21.1
2015-May-25 06:35 292 2 gusting 3 21.7
2015-May-25 06:30 292 2 gusting 5 22.2
2015-May-25 06:25 225 2 gusting 4 22.8
2015-May-25 06:20 247 2 gusting 3 23.3
2015-May-25 06:15 315 2 gusting 3 23.9
2015-May-25 06:10 247 0 gusting 1 23.3
2015-May-25 06:05 225 1 gusting 1 22.8
2015-May-25 06:00 292 0 gusting 0 22.2
2015-May-25 05:55 247 0 gusting 1 22.2
2015-May-25 05:50 247 1 gusting 2 22.2
2015-May-25 05:45 292 1 gusting 2 22.2
2015-May-25 05:40 225 0 gusting 2 22.2
2015-May-25 05:35 292 0 gusting 1 21.7
2015-May-25 05:30 247 1 gusting 3 21.7
2015-May-25 05:25 292 0 gusting 1 21.1
2015-May-25 05:20 270 0 gusting 1 21.1
2015-May-25 05:15 270 1 gusting 3 20.6
2015-May-25 05:10 270 1 gusting 2 20.6
2015-May-25 05:05 315 20.0
2015-May-25 05:00 315 18.9
2015-May-25 04:55 337 1 gusting 1 18.3
2015-May-25 04:50 17.8
2015-May-25 04:45 045 0 gusting 0 17.2
2015-May-25 04:40 090 0 gusting 1 16.7
2015-May-25 04:35 090 16.1
2015-May-25 04:30 112 15.6
2015-May-25 04:25 112 1 gusting 2 15.0
2015-May-25 04:20 112 0 gusting 1 15.0
2015-May-25 04:15 067 0 gusting 1 14.4
2015-May-25 04:10 090 0 gusting 1 13.9
2015-May-25 04:05 090 0 gusting 1 13.3
2015-May-25 04:00 090 0 gusting 1 12.8
2015-May-25 03:55 090 0 gusting 1 12.8
2015-May-25 03:50 090 12.8
2015-May-25 03:45 067 12.8
2015-May-25 03:40 067 12.8
2015-May-25 03:35 067 12.8
2015-May-25 03:30 067 0 gusting 0 13.3
2015-May-25 03:25 022 0 gusting 0 13.3
2015-May-25 03:20 022 13.3
2015-May-25 03:15 13.9
2015-May-25 03:10 13.9
2015-May-25 03:05 045 1 gusting 2 13.9
2015-May-25 03:00 337 0 gusting 1 13.9